createdAt,value
2022-08-25T00:00:21.571Z,98696.31
2022-08-25T00:02:55.229Z,98707.03
2022-08-25T00:05:29.380Z,98698.81
2022-08-25T00:08:01.377Z,98706.19
2022-08-25T00:10:30.613Z,98705.66
2022-08-25T00:12:59.246Z,98712.28
2022-08-25T00:15:27.998Z,98723.72
2022-08-25T00:17:57.409Z,98731.84
2022-08-25T00:20:26.599Z,98730.00
2022-08-25T00:22:57.114Z,98747.84
2022-08-25T00:25:26.036Z,98738.88
2022-08-25T00:27:54.618Z,98741.13
2022-08-25T00:30:23.313Z,98745.47
2022-08-25T00:32:55.278Z,98749.78
2022-08-25T00:35:27.073Z,98748.50
2022-08-25T00:37:56.362Z,98749.78
2022-08-25T00:40:27.743Z,98761.03
2022-08-25T00:42:57.183Z,98767.94
2022-08-25T00:45:26.520Z,98768.16
2022-08-25T00:47:56.705Z,98775.81
2022-08-25T00:50:30.592Z,98773.00
2022-08-25T00:53:03.252Z,98782.19
2022-08-25T00:55:40.372Z,98782.97
2022-08-25T00:58:17.344Z,98778.63
2022-08-25T01:00:50.613Z,98790.63
2022-08-25T01:03:20.542Z,98787.81
2022-08-25T01:05:54.604Z,98787.81
2022-08-25T01:08:29.215Z,98792.16
2022-08-25T01:11:03.005Z,98812.56
2022-08-25T01:13:39.463Z,98805.44
2022-08-25T01:16:08.328Z,98815.91
2022-08-25T01:18:48.287Z,98816.44
2022-08-25T01:21:19.190Z,98815.69
2022-08-25T01:23:49.157Z,98817.53
2022-08-25T01:26:32.460Z,98817.53
2022-08-25T01:29:23.652Z,98817.75
2022-08-25T01:31:57.631Z,98810.06
2022-08-25T01:34:32.363Z,98801.88
2022-08-25T01:37:01.669Z,98801.56
2022-08-25T01:39:34.325Z,98809.16
2022-08-25T01:42:12.576Z,98801.69
2022-08-25T01:44:44.799Z,98799.31
2022-08-25T01:47:15.247Z,98796.41
2022-08-25T01:49:46.159Z,98794.78
2022-08-25T01:52:25.338Z,98795.22
2022-08-25T01:54:53.943Z,98787.78
2022-08-25T01:57:23.445Z,98800.53
2022-08-25T01:59:52.005Z,98793.09
2022-08-25T02:02:20.611Z,98799.16
2022-08-25T02:04:50.710Z,98791.38
2022-08-25T02:07:19.883Z,98784.69
2022-08-25T02:09:48.554Z,98793.56
2022-08-25T02:12:17.376Z,98795.97
2022-08-25T02:14:47.147Z,98793.25
2022-08-25T02:17:15.690Z,98788.47
2022-08-25T02:19:44.383Z,98795.50
2022-08-25T02:22:13.034Z,98799.28
2022-08-25T02:24:41.717Z,98798.75
2022-08-25T02:27:11.751Z,98805.38
2022-08-25T02:29:40.911Z,98802.56
2022-08-25T02:32:11.211Z,98794.13
2022-08-25T02:34:42.513Z,98794.66
2022-08-25T02:37:11.138Z,98794.41
2022-08-25T02:39:39.706Z,98794.97
2022-08-25T02:42:08.250Z,98794.19
2022-08-25T02:44:36.843Z,98800.38
2022-08-25T02:47:06.394Z,98792.47
2022-08-25T02:49:36.325Z,98792.47
2022-08-25T02:52:05.159Z,98799.41
2022-08-25T02:54:33.911Z,98798.31
2022-08-25T02:57:02.973Z,98802.22
2022-08-25T02:59:32.170Z,98809.69
2022-08-25T03:02:01.117Z,98808.28
2022-08-25T03:04:30.485Z,98811.53
2022-08-25T03:07:00.192Z,98815.19
2022-08-25T03:09:29.254Z,98810.75
2022-08-25T03:11:58.295Z,98808.03
2022-08-25T03:14:26.888Z,98798.63
2022-08-25T03:16:55.624Z,98799.91
2022-08-25T03:19:25.798Z,98797.09
2022-08-25T03:21:57.289Z,98802.94
2022-08-25T03:24:26.445Z,98795.69
2022-08-25T03:26:56.859Z,98796.69
2022-08-25T03:29:32.268Z,98793.56
2022-08-25T03:32:02.129Z,98785.56
2022-08-25T03:34:32.098Z,98786.22
2022-08-25T03:37:01.103Z,98776.16
2022-08-25T03:39:30.135Z,98764.78
2022-08-25T03:41:58.765Z,98756.22
2022-08-25T03:44:27.320Z,98751.78
2022-08-25T03:46:55.872Z,98753.22
2022-08-25T03:49:25.738Z,98749.50
2022-08-25T03:51:56.023Z,98743.75
2022-08-25T03:54:27.173Z,98746.44
2022-08-25T03:56:56.309Z,98744.28
2022-08-25T03:59:25.071Z,98736.28
2022-08-25T04:01:55.409Z,98740.28
2022-08-25T04:04:24.582Z,98736.38
2022-08-25T04:06:54.191Z,98743.94
2022-08-25T04:09:22.821Z,98737.97
2022-08-25T04:11:53.271Z,98739.88
2022-08-25T04:14:23.249Z,98739.00
2022-08-25T04:16:52.196Z,98737.38
2022-08-25T04:19:21.827Z,98730.09
2022-08-25T04:21:51.337Z,98726.38
2022-08-25T04:24:20.311Z,98724.72
2022-08-25T04:26:51.942Z,98711.06
2022-08-25T04:29:23.583Z,98718.84
2022-08-25T04:31:53.609Z,98715.16
2022-08-25T04:34:30.979Z,98714.78
2022-08-25T04:37:05.060Z,98704.34
2022-08-25T04:39:33.988Z,98704.94
2022-08-25T04:42:02.736Z,98697.88
2022-08-25T04:44:32.911Z,98699.97
2022-08-25T04:47:02.443Z,98696.25
2022-08-25T04:49:31.257Z,98688.38
2022-08-25T04:52:00.289Z,98683.56
2022-08-25T04:54:29.290Z,98682.31
2022-08-25T04:57:05.808Z,98684.63
2022-08-25T04:59:34.564Z,98685.44
2022-08-25T05:02:03.962Z,98686.78
2022-08-25T05:04:33.675Z,98676.81
2022-08-25T05:07:02.620Z,98680.78
2022-08-25T05:09:32.399Z,98676.09
2022-08-25T05:12:03.568Z,98674.97
2022-08-25T05:14:33.523Z,98669.00
2022-08-25T05:17:02.304Z,98672.19
2022-08-25T05:19:30.960Z,98669.56
2022-08-25T05:21:59.609Z,98665.81
2022-08-25T05:24:29.056Z,98662.84
2022-08-25T05:26:58.295Z,98669.44
2022-08-25T05:29:28.036Z,98665.09
2022-08-25T05:31:56.717Z,98663.78
2022-08-25T05:34:26.411Z,98654.75
2022-08-25T05:36:55.642Z,98649.44
2022-08-25T05:39:24.700Z,98648.31
2022-08-25T05:41:55.725Z,98647.38
2022-08-25T05:44:24.352Z,98639.66
2022-08-25T05:46:53.560Z,98642.47
2022-08-25T05:49:22.205Z,98636.28
2022-08-25T05:51:50.844Z,98630.81
2022-08-25T05:54:19.527Z,98629.53
2022-08-25T05:56:48.165Z,98626.16
2022-08-25T05:59:16.721Z,98628.47
2022-08-25T06:02:03.429Z,98620.56
2022-08-25T06:04:31.971Z,98606.44
2022-08-25T06:07:00.640Z,98602.66
2022-08-25T06:09:29.298Z,98593.09
2022-08-25T06:11:58.004Z,98592.88
2022-08-25T06:14:26.898Z,98589.84
2022-08-25T06:16:55.582Z,98585.34
2022-08-25T06:19:24.744Z,98581.00
2022-08-25T06:21:56.789Z,98573.88
2022-08-25T06:24:27.408Z,98571.59
2022-08-25T06:26:57.218Z,98569.72
2022-08-25T06:29:26.312Z,98564.81
2022-08-25T06:31:54.946Z,98562.56
2022-08-25T06:34:23.844Z,98557.13
2022-08-25T06:36:53.242Z,98560.50
2022-08-25T06:39:22.360Z,98562.75
2022-08-25T06:41:57.520Z,98558.44
2022-08-25T06:44:27.384Z,98551.66
2022-08-25T06:46:56.346Z,98543.53
2022-08-25T06:49:31.921Z,98544.69
2022-08-25T06:52:03.495Z,98540.53
2022-08-25T06:54:32.172Z,98533.00
2022-08-25T06:57:00.739Z,98526.63
2022-08-25T06:59:32.099Z,98520.78
2022-08-25T07:02:03.211Z,98519.47
2022-08-25T07:04:33.295Z,98519.47
2022-08-25T07:07:02.118Z,98511.00
2022-08-25T07:09:30.813Z,98508.94
2022-08-25T07:11:59.833Z,98501.03
2022-08-25T07:14:28.453Z,98504.59
2022-08-25T07:16:56.985Z,98504.22
2022-08-25T07:19:25.510Z,98505.16
2022-08-25T07:21:55.292Z,98504.03
2022-08-25T07:24:25.042Z,98504.78
2022-08-25T07:26:54.021Z,98496.13
2022-08-25T07:29:32.796Z,98493.31
2022-08-25T07:32:06.325Z,98487.84
2022-08-25T07:34:53.637Z,98485.97
2022-08-25T07:37:47.917Z,98488.59
2022-08-25T07:40:27.209Z,98480.69
2022-08-25T07:42:59.324Z,98492.38
2022-08-25T07:45:34.308Z,98480.31
2022-08-25T07:48:07.088Z,98487.84
2022-08-25T07:50:40.138Z,98485.59
2022-08-25T07:53:09.607Z,98476.19
2022-08-25T07:55:40.059Z,98489.34
2022-08-25T07:58:10.459Z,98489.72
2022-08-25T08:00:42.692Z,98485.19
2022-08-25T08:03:19.895Z,98486.13
2022-08-25T08:06:00.970Z,98498.53
2022-08-25T08:08:30.419Z,98501.72
2022-08-25T08:11:04.715Z,98497.78
2022-08-25T08:13:39.325Z,98488.75
2022-08-25T08:16:14.612Z,98482.53
2022-08-25T08:18:45.064Z,98486.25
2022-08-25T08:21:20.077Z,98486.44
2022-08-25T08:23:49.625Z,98495.28
2022-08-25T08:26:19.310Z,98493.97
2022-08-25T08:28:51.866Z,98492.59
2022-08-25T08:31:27.901Z,98481.28
2022-08-25T08:33:59.030Z,98477.69
2022-08-25T08:36:28.042Z,98474.09
2022-08-25T08:38:58.665Z,98457.16
2022-08-25T08:42:11.390Z,98449.22
2022-08-25T08:44:46.848Z,98440.94
2022-08-25T08:47:30.074Z,98420.56
2022-08-25T08:50:35.742Z,98430.31
2022-08-25T08:53:18.057Z,98434.78
2022-08-25T08:56:01.283Z,98437.97
2022-08-25T08:58:52.581Z,98444.16
2022-08-25T09:01:37.415Z,98459.34
2022-08-25T09:04:31.479Z,98454.28
2022-08-25T09:07:04.741Z,98457.09
2022-08-25T09:09:36.324Z,98447.47
2022-08-25T09:12:23.010Z,98436.75
2022-08-25T09:14:54.012Z,98429.44
2022-08-25T09:17:38.319Z,98446.13
2022-08-25T09:20:43.360Z,98458.28
2022-08-25T09:23:31.795Z,98447.19
2022-08-25T09:26:37.247Z,98432.72
2022-08-25T09:29:17.236Z,98432.09
2022-08-25T09:31:46.723Z,98429.09
2022-08-25T09:34:21.721Z,98428.66
2022-08-25T09:36:53.946Z,98414.19
2022-08-25T09:39:23.448Z,98416.81
2022-08-25T09:41:57.593Z,98408.72
2022-08-25T09:44:30.311Z,98422.03
2022-08-25T09:47:14.859Z,98414.69
2022-08-25T09:49:47.133Z,98420.88
2022-08-25T09:52:37.352Z,98427.59
2022-08-25T09:55:15.150Z,98433.00
2022-08-25T09:57:57.778Z,98429.25
2022-08-25T10:00:32.182Z,98430.53
2022-08-25T10:03:13.100Z,98430.34
2022-08-25T10:06:01.304Z,98435.00
2022-08-25T10:08:37.468Z,98447.03
2022-08-25T10:11:16.796Z,98437.06
2022-08-25T10:13:51.994Z,98446.81
2022-08-25T10:16:34.086Z,98436.31
2022-08-25T10:19:07.710Z,98446.81
2022-08-25T10:21:39.315Z,98441.19
2022-08-25T10:24:10.207Z,98441.19
2022-08-25T10:26:58.915Z,98455.25
2022-08-25T10:29:33.064Z,98453.75
2022-08-25T10:32:18.029Z,98453.00
2022-08-25T10:34:51.748Z,98464.03
2022-08-25T10:37:32.958Z,98458.22
2022-08-25T10:40:14.075Z,98462.13
2022-08-25T10:43:00.029Z,98470.38
2022-08-25T10:45:46.726Z,98464.31
2022-08-25T10:48:50.778Z,98476.44
2022-08-25T10:51:37.926Z,98473.97
2022-08-25T10:54:15.217Z,98477.88
2022-08-25T10:56:55.790Z,98483.84
2022-08-25T10:59:51.179Z,98490.53
2022-08-25T11:02:41.502Z,98493.69
2022-08-25T11:05:24.680Z,98507.53
2022-08-25T11:08:46.397Z,98512.75
2022-08-25T11:11:37.825Z,98519.44
2022-08-25T11:14:12.519Z,98526.38
2022-08-25T11:16:49.198Z,98528.22
2022-08-25T11:19:27.952Z,98525.19
2022-08-25T11:22:19.411Z,98523.47
2022-08-25T11:24:51.118Z,98526.06
2022-08-25T11:27:24.784Z,98511.06
2022-08-25T11:30:08.025Z,98521.53
2022-08-25T11:32:39.427Z,98524.34
2022-08-25T11:35:12.369Z,98520.78
2022-08-25T11:37:58.928Z,98520.56
2022-08-25T11:40:42.521Z,98527.50
2022-08-25T11:43:26.686Z,98523.94
2022-08-25T11:46:27.848Z,98522.41
2022-08-25T11:49:25.143Z,98527.06
2022-08-25T11:51:54.588Z,98537.56
2022-08-25T11:54:38.281Z,98540.91
2022-08-25T11:57:23.314Z,98550.44
2022-08-25T11:59:52.592Z,98553.25
2022-08-25T12:02:41.248Z,98553.75
2022-08-25T12:05:25.582Z,98550.19
2022-08-25T12:08:12.221Z,98547.94
2022-08-25T12:11:07.231Z,98554.09
2022-08-25T12:13:50.823Z,98558.19
2022-08-25T12:16:37.274Z,98560.25
2022-08-25T12:19:36.704Z,98562.84
2022-08-25T12:22:06.683Z,98569.22
2022-08-25T12:24:47.534Z,98578.75
2022-08-25T12:27:38.241Z,98574.41
2022-08-25T12:30:27.770Z,98583.38
2022-08-25T12:33:02.576Z,98586.19
2022-08-25T12:35:56.675Z,98596.69
2022-08-25T12:38:30.142Z,98598.19
2022-08-25T12:41:19.643Z,98610.72
2022-08-25T12:43:51.215Z,98615.03
2022-08-25T12:46:30.147Z,98617.84
2022-08-25T12:49:01.315Z,98622.16
2022-08-25T12:51:42.233Z,98616.56
2022-08-25T12:54:52.274Z,98621.63
2022-08-25T12:57:42.305Z,98625.75
2022-08-25T13:02:57.566Z,98626.50
2022-08-25T13:05:44.396Z,98620.88
2022-08-25T13:08:46.808Z,98622.16
2022-08-25T13:11:25.842Z,98626.28
2022-08-25T13:14:26.883Z,98621.41
2022-08-25T13:17:00.631Z,98624.78
2022-08-25T13:19:34.746Z,98626.06
2022-08-25T13:22:18.816Z,98630.16
2022-08-25T13:24:51.600Z,98635.56
2022-08-25T13:27:26.402Z,98645.84
2022-08-25T13:29:59.122Z,98646.38
2022-08-25T13:32:35.818Z,98651.00
2022-08-25T13:35:20.524Z,98656.41
2022-08-25T13:37:50.245Z,98656.91
2022-08-25T13:40:33.712Z,98663.06
2022-08-25T13:43:14.180Z,98662.31
2022-08-25T13:45:50.579Z,98662.84
2022-08-25T13:48:49.271Z,98659.81
2022-08-25T13:51:31.022Z,98657.00
2022-08-25T13:54:03.903Z,98662.63
2022-08-25T13:56:40.964Z,98663.91
2022-08-25T13:59:40.285Z,98665.97
2022-08-25T14:02:15.269Z,98664.47
2022-08-25T14:04:52.715Z,98668.03
2022-08-25T14:07:24.206Z,98672.13
2022-08-25T14:10:33.364Z,98680.56
2022-08-25T14:13:16.531Z,98683.34
2022-08-25T14:15:48.034Z,98691.03
2022-08-25T14:18:27.351Z,98690.81
2022-08-25T14:20:58.416Z,98700.75
2022-08-25T14:23:30.702Z,98700.00
2022-08-25T14:26:00.123Z,98708.41
2022-08-25T14:28:31.329Z,98708.41
2022-08-25T14:31:06.199Z,98714.78
2022-08-25T14:33:53.827Z,98721.91
2022-08-25T14:36:22.526Z,98733.16
2022-08-25T14:38:54.846Z,98738.53
2022-08-25T14:41:25.699Z,98747.72
2022-08-25T14:43:55.144Z,98748.47
2022-08-25T14:46:29.252Z,98750.53
2022-08-25T14:49:01.209Z,98752.81
2022-08-25T14:51:33.714Z,98753.56
2022-08-25T14:54:08.915Z,98750.75
2022-08-25T14:56:37.636Z,98756.38
2022-08-25T14:59:08.438Z,98764.78
2022-08-25T15:01:37.244Z,98762.75
2022-08-25T15:04:20.401Z,98770.41
2022-08-25T15:06:55.114Z,98763.50
2022-08-25T15:09:25.420Z,98763.50
2022-08-25T15:12:01.859Z,98760.69
2022-08-25T15:14:33.205Z,98759.94
2022-08-25T15:17:03.407Z,98754.31
2022-08-25T15:19:32.041Z,98757.88
2022-08-25T15:22:00.656Z,98748.16
2022-08-25T15:24:30.173Z,98760.38
2022-08-25T15:27:04.966Z,98756.06
2022-08-25T15:29:35.997Z,98764.69
2022-08-25T15:32:08.133Z,98766.97
2022-08-25T15:34:37.964Z,98764.91
2022-08-25T15:37:13.253Z,98766.97
2022-08-25T15:39:44.486Z,98762.13
2022-08-25T15:42:14.940Z,98756.50
2022-08-25T15:44:53.274Z,98767.97
2022-08-25T15:47:23.930Z,98759.56
2022-08-25T15:50:01.327Z,98753.94
2022-08-25T15:52:44.591Z,98755.44
2022-08-25T15:55:17.955Z,98757.50
2022-08-25T15:57:49.490Z,98750.59
2022-08-25T16:00:19.448Z,98739.34
2022-08-25T16:02:50.839Z,98739.91
2022-08-25T16:05:25.818Z,98735.78
2022-08-25T16:07:54.822Z,98739.34
2022-08-25T16:10:24.639Z,98727.38
2022-08-25T16:12:53.787Z,98716.88
2022-08-25T16:15:23.995Z,98718.41
2022-08-25T16:17:59.078Z,98715.09
2022-08-25T16:20:29.089Z,98704.59
2022-08-25T16:22:59.162Z,98700.50
2022-08-25T16:25:29.604Z,98695.84
2022-08-25T16:27:58.327Z,98695.09
2022-08-25T16:30:27.103Z,98691.00
2022-08-25T16:32:55.684Z,98691.00
2022-08-25T16:35:24.689Z,98682.03
2022-08-25T16:37:53.252Z,98676.41
2022-08-25T16:40:24.513Z,98674.34
2022-08-25T16:42:56.087Z,98675.88
2022-08-25T16:45:24.742Z,98670.25
2022-08-25T16:47:53.432Z,98676.63
2022-08-25T16:50:22.078Z,98671.75
2022-08-25T16:53:09.340Z,98666.91
2022-08-25T16:55:38.993Z,98656.44
2022-08-25T16:58:08.784Z,98658.47
2022-08-25T17:00:43.973Z,98655.88
2022-08-25T17:03:14.074Z,98653.84
2022-08-25T17:05:44.409Z,98651.78
2022-08-25T17:08:31.236Z,98654.59
2022-08-25T17:11:16.918Z,98660.41
2022-08-25T17:13:49.743Z,98656.84
2022-08-25T17:16:20.476Z,98655.56
2022-08-25T17:18:49.657Z,98647.13
2022-08-25T17:21:24.536Z,98643.03
2022-08-25T17:23:54.877Z,98642.25
2022-08-25T17:26:27.872Z,98645.84
2022-08-25T17:28:59.741Z,98643.03
2022-08-25T17:31:30.674Z,98643.03
2022-08-25T17:34:00.433Z,98643.56
2022-08-25T17:36:29.625Z,98641.50
2022-08-25T17:38:58.285Z,98631.03
2022-08-25T17:41:27.099Z,98639.47
2022-08-25T17:43:55.741Z,98649.94
2022-08-25T17:46:25.070Z,98657.59
2022-08-25T17:48:54.903Z,98661.19
2022-08-25T17:51:24.067Z,98644.31
2022-08-25T17:53:53.826Z,98644.31
2022-08-25T17:56:27.357Z,98642.25
2022-08-25T17:58:57.872Z,98642.25
2022-08-25T18:01:30.425Z,98643.78
2022-08-25T18:04:00.429Z,98644.53
2022-08-25T18:06:33.226Z,98647.34
2022-08-25T18:09:02.709Z,98650.91
2022-08-25T18:11:31.480Z,98648.09
2022-08-25T18:14:00.943Z,98650.91
2022-08-25T18:16:30.024Z,98651.66
2022-08-25T18:18:58.964Z,98648.84
2022-08-25T18:21:30.702Z,98650.91
2022-08-25T18:23:59.890Z,98648.09
2022-08-25T18:26:28.763Z,98653.72
2022-08-25T18:28:57.345Z,98653.19
2022-08-25T18:31:26.841Z,98652.41
2022-08-25T18:33:55.808Z,98646.25
2022-08-25T18:36:24.580Z,98647.03
2022-08-25T18:39:13.472Z,98640.09
2022-08-25T18:41:45.037Z,98636.75
2022-08-25T18:44:15.451Z,98631.91
2022-08-25T18:46:45.591Z,98638.28
2022-08-25T18:49:16.242Z,98627.06
2022-08-25T18:51:47.387Z,98630.63
2022-08-25T18:54:23.428Z,98627.81
2022-08-25T18:56:54.710Z,98628.56
2022-08-25T18:59:24.250Z,98620.13
2022-08-25T19:01:54.890Z,98623.50
2022-08-25T19:04:31.563Z,98615.56
2022-08-25T19:07:01.861Z,98617.63
2022-08-25T19:09:32.469Z,98618.16
2022-08-25T19:12:02.215Z,98615.91
2022-08-25T19:14:30.933Z,98608.75
2022-08-25T19:17:00.942Z,98602.19
2022-08-25T19:19:29.950Z,98593.53
2022-08-25T19:21:59.387Z,98594.09
2022-08-25T19:24:29.293Z,98588.25
2022-08-25T19:26:59.016Z,98588.78
2022-08-25T19:29:30.500Z,98587.28
2022-08-25T19:32:01.068Z,98575.06
2022-08-25T19:34:34.261Z,98574.88
2022-08-25T19:37:04.882Z,98569.25
2022-08-25T19:39:35.522Z,98578.22
2022-08-25T19:42:08.794Z,98568.25
2022-08-25T19:44:57.429Z,98560.91
2022-08-25T19:47:27.022Z,98559.38
2022-08-25T19:49:56.155Z,98548.66
2022-08-25T19:52:26.743Z,98549.97
2022-08-25T19:54:56.296Z,98549.22
2022-08-25T19:57:28.530Z,98549.75
2022-08-25T20:00:30.278Z,98538.31
2022-08-25T20:03:01.501Z,98541.34
2022-08-25T20:05:31.150Z,98537.56
2022-08-25T20:08:00.896Z,98539.59
2022-08-25T20:10:35.603Z,98534.75
2022-08-25T20:13:10.888Z,98531.72
2022-08-25T20:15:40.075Z,98541.88
2022-08-25T20:18:09.171Z,98533.22
2022-08-25T20:20:38.481Z,98532.47
2022-08-25T20:23:26.470Z,98530.97
2022-08-25T20:25:56.570Z,98525.34
2022-08-25T20:28:25.363Z,98529.47
2022-08-25T20:30:53.992Z,98533.03
2022-08-25T20:33:23.583Z,98535.81
2022-08-25T20:35:53.119Z,98532.25
2022-08-25T20:38:22.000Z,98539.38
2022-08-25T20:40:50.540Z,98551.38
2022-08-25T20:43:19.124Z,98549.88
2022-08-25T20:45:49.645Z,98542.19
2022-08-25T20:48:18.428Z,98557.00
2022-08-25T20:50:57.366Z,98556.78
2022-08-25T20:53:27.439Z,98564.13
2022-08-25T20:55:56.103Z,98565.41
2022-08-25T20:58:24.911Z,98568.97
2022-08-25T21:00:55.935Z,98569.75
2022-08-25T21:03:24.528Z,98566.19
2022-08-25T21:05:53.986Z,98568.97
2022-08-25T21:08:23.756Z,98566.94
2022-08-25T21:10:52.496Z,98564.13
2022-08-25T21:13:21.197Z,98559.81
2022-08-25T21:15:51.611Z,98561.31
2022-08-25T21:18:20.182Z,98562.06
2022-08-25T21:20:49.323Z,98558.50
2022-08-25T21:23:17.897Z,98565.41
2022-08-25T21:25:46.749Z,98566.94
2022-08-25T21:28:16.109Z,98568.78
2022-08-25T21:30:47.424Z,98569.53
2022-08-25T21:33:16.520Z,98573.63
2022-08-25T21:35:45.306Z,98570.81
2022-08-25T21:38:15.567Z,98582.06
2022-08-25T21:40:45.006Z,98582.06
2022-08-25T21:43:13.802Z,98589.72
2022-08-25T21:45:46.697Z,98593.81
2022-08-25T21:48:15.754Z,98595.88
2022-08-25T21:50:44.357Z,98586.69
2022-08-25T21:53:13.639Z,98583.13
2022-08-25T21:55:45.642Z,98596.41
2022-08-25T21:58:14.212Z,98593.41
2022-08-25T22:00:43.954Z,98587.03
2022-08-25T22:03:12.553Z,98587.56
2022-08-25T22:05:41.099Z,98588.84
2022-08-25T22:08:14.130Z,98594.25
2022-08-25T22:10:46.532Z,98582.81
2022-08-25T22:13:15.084Z,98590.47
2022-08-25T22:15:43.625Z,98597.13
2022-08-25T22:18:12.357Z,98593.34
2022-08-25T22:20:41.358Z,98601.56
2022-08-25T22:23:10.172Z,98603.41
2022-08-25T22:25:49.532Z,98611.06
2022-08-25T22:28:19.779Z,98608.56
2022-08-25T22:30:48.607Z,98608.34
2022-08-25T22:33:17.527Z,98610.72
2022-08-25T22:35:46.982Z,98608.47
2022-08-25T22:38:15.790Z,98611.03
2022-08-25T22:40:46.403Z,98615.13
2022-08-25T22:43:15.095Z,98619.25
2022-08-25T22:45:43.855Z,98616.97
2022-08-25T22:48:12.906Z,98619.03
2022-08-25T22:50:41.480Z,98621.06
2022-08-25T22:53:10.064Z,98624.91
2022-08-25T22:55:44.635Z,98626.75
2022-08-25T22:58:15.785Z,98642.84
2022-08-25T23:00:44.368Z,98636.47
2022-08-25T23:03:13.023Z,98639.03
2022-08-25T23:05:41.893Z,98646.72
2022-08-25T23:08:10.472Z,98657.94
2022-08-25T23:10:39.024Z,98655.63
2022-08-25T23:13:08.005Z,98667.91
2022-08-25T23:15:36.623Z,98671.47
2022-08-25T23:18:05.514Z,98676.34
2022-08-25T23:20:52.268Z,98684.75
2022-08-25T23:23:21.262Z,98685.50
2022-08-25T23:25:50.684Z,98691.13
2022-08-25T23:28:19.836Z,98698.78
2022-08-25T23:30:56.982Z,98695.44
2022-08-25T23:33:28.207Z,98701.81
2022-08-25T23:36:06.413Z,98701.81
2022-08-25T23:38:35.788Z,98717.34
2022-08-25T23:41:11.047Z,98717.34
2022-08-25T23:43:39.806Z,98720.91
2022-08-25T23:46:10.192Z,98715.31
2022-08-25T23:48:39.517Z,98720.91
2022-08-25T23:51:08.357Z,98717.34
2022-08-25T23:53:38.018Z,98724.50
2022-08-25T23:56:07.531Z,98726.78
2022-08-25T23:58:37.053Z,98725.28
